Albion, Rhode Island
Current Conditions -  °F | °C
As of 9:15 AM on Wednesday 28 Jan 2015 (Local Time) from KSFZ Reporting Station
Overcast Overcast  
Wind Chill: -18°   Ceiling: 4500
Heat Index: -10°   Visibility: 10mi
Dew Point: -18°   Wind: 13mph
Humidity: 53%   Direction: 320°NW
Pressure: 29.89"   Gusts: 18mph
Location:  41.95°N, 71.45°W
Report Text: KSFZ 281415Z 32011G16KT 10SM SCT038 OVC045 M10/M18 A2989 RMK AO1
Loading
Personal Weather Stations






























Interactive Weather Map New forecast layout! Learn more

10-Day Weather Forecast

Advertisements
Track Severe Weather on mobile